Aberdeen, SD (57401)

6:05 PM CDT on March 25, 2017 (GMT -0500)
St. Mary's Church | | Change Station

Elev 1302 ft 45.47 °N, 98.48 °W | Updated 23 seconds ago

Partly Cloudy
Partly Cloudy
49.3 °F
Feels Like 49 °F
N
2.0
Wind Variable Wind from ESE
Gusts 6.0 mph

Today
High -- | Low -- °F
--% Chance of Precip.
Yesterday
High -- | Low -- °F
Precip. -- in
Pressure 30.02 in
Visibility 10.0 miles
Clouds Clear
Windchill 49 °F
Dew Point 36 °F
Humidity 60%
Rainfall 0.00 in
Snow Depth Not available.
7:26 AM 7:53 PM
Waning Crescent, 6% visible
METAR KABR 252253Z AUTO 12011KT 10SM CLR 09/00 A2998 RMK AO2 SLP165 T00890000
Pressure 30.02 in
Visibility 10.0 miles
Clouds Clear
Windchill 49 °F
Dew Point 36 °F
Humidity 60%
Rainfall 0.00 in
Snow Depth Not available.
7:26 AM 7:53 PM
Waning Crescent, 6% visible
METAR KABR 252253Z AUTO 12011KT 10SM CLR 09/00 A2998 RMK AO2 SLP165 T00890000

Get Severe Weather Alerts

Thanks for signing up!

Be on the lookout for a verification email in your inbox.

You'll start receiving the daily forecast at 8 AM.

×

10-Day Weather Forecast

Almanac

Astronomy

Mar. 25, 2017 Rise Set
Actual Time
Civil Twilight
Nautical Twilight
Astronomical Twilight
Moon
Length of Visible Light
Length of Day
Tomorrow will be .
, % of the Moon is Illuminated

Today's Extremes

State Highs State Lows

Community

WunderPhotos

Upload Photos

1,962,540 photos uploaded!

WunderBlog® & News

Nearby

Air Quality

  Air Quality AQ Index Pollutant
Not available.

Snow Depth

Station Depth Elevation

Earthquake Activity

City Distance Mag. Time & Date
Minimum magnitude displayed is 2.5.

Earthquake Activity

City Distance Mag. Time & Date
Minimum magnitude displayed is 2.5.

Coastal Water Temperatures

Place Temperature

Stations

Nearby Weather Stations

Station Location Temp. Windchill Dew Point Humidity Wind Precip. Elev Updated Type
                   

Watches & Warnings

There are currently no watches in effect.